Time;durP1;ratioP1;P1;durP2;ratioP2;P2;SDS_P1;SDS_P2;PMS_P1;PMS_P2;Temp;Humidity;BMP_temperature;BMP_pressure;BME280_temperature;BME280_humidity;BME280_pressure;Samples;Min_cycle;Max_cycle;Signal;HPM_P1;HPM_P2
2022/05/22 00:02:01;;;;;;;;;;;;;;;;;;4983939;28;19937;-65
2022/05/22 00:04:29;;;;;;;;;;;;;;;;;;4983368;28;19936;-67
2022/05/22 00:06:55;;;;;;;;;;;;;;;;;;4982308;28;20020;-68
2022/05/22 00:09:20;;;;;;;;;;;;;;;;;;4984704;28;19975;-65
2022/05/22 00:11:46;;;;;;;;;;;;;;;;;;4981355;28;19928;-67
2022/05/22 00:14:14;;;;;;;;;;;;;;;;;;4970089;28;20017;-66
2022/05/22 00:16:46;;;;;;;;;;;;;;;;;;4981389;28;19921;-66
2022/05/22 00:19:12;;;;;;;;;;;;;;;;;;4980151;28;19922;-66
2022/05/22 00:21:38;;;;;;;;;;;;;;;;;;4981832;28;19918;-66
2022/05/22 00:24:10;;;;;;;;;;;;;;;;;;4982771;28;20560;-67
2022/05/22 00:26:35;;;;;;;;;;;;;;;;;;4984830;28;19952;-67
2022/05/22 00:29:01;;;;;;;;;;;;;;;;;;4983399;28;19922;-67
2022/05/22 00:31:27;;;;;;;;;;;;;;;;;;4982480;28;20008;-67
2022/05/22 00:33:52;;;;;;;;;;;;;;;;;;4979729;28;19945;-66
2022/05/22 00:36:17;;;;;;;;;;;;;;;;;;4981093;28;20386;-67
2022/05/22 00:38:43;;;;;;;;;;;;;;;;;;4980774;28;19922;-66
2022/05/22 00:41:08;;;;;;;;;;;;;;;;;;4982590;28;19922;-67
2022/05/22 00:43:34;;;;;;;;;;;;;;;;;;4980411;28;19925;-67
2022/05/22 00:45:59;;;;;;;;;;;;;;;;;;4958856;28;19937;-66
2022/05/22 00:48:24;;;;;;;;;;;;;;;;;;4970508;28;20043;-66
2022/05/22 00:50:50;;;;;;;;;;;;;;;;;;4962056;28;20929;-64
2022/05/22 00:53:16;;;;;;;;;;;;;;;;;;4982051;28;20665;-65
2022/05/22 00:55:41;;;;;;;;;;;;;;;;;;4979970;28;21851;-66
2022/05/22 00:58:06;;;;;;;;;;;;;;;;;;4951490;28;20753;-65
2022/05/22 01:00:35;;;;;;;;;;;;;;;;;;4982745;28;20566;-65
2022/05/22 01:05:46;;;;;;;;;;;;;;;;;;4968045;28;19930;-66
2022/05/22 01:08:11;;;;;;;;;;;;;;;;;;4979540;28;20031;-65
2022/05/22 01:10:36;;;;;;;;;;;;;;;;;;4981398;28;20016;-65
2022/05/22 01:13:02;;;;;;;;;;;;;;;;;;4982223;28;19951;-65
2022/05/22 01:15:27;;;;;;;;;;;;;;;;;;4984360;28;20035;-67
2022/05/22 01:17:53;;;;;;;;;;;;;;;;;;4986201;28;19974;-66
2022/05/22 01:20:21;;;;;;;;;;;;;;;;;;4986128;28;19917;-66
2022/05/22 01:22:46;;;;;;;;;;;;;;;;;;4986900;28;20377;-66
2022/05/22 01:25:12;;;;;;;;;;;;;;;;;;4986192;28;19944;-66
2022/05/22 01:27:37;;;;;;;;;;;;;;;;;;4984319;28;19956;-65
2022/05/22 01:30:04;;;;;;;;;;;;;;;;;;4985189;28;19917;-65
2022/05/22 01:32:30;;;;;;;;;;;;;;;;;;4986386;28;19960;-66
2022/05/22 01:34:55;;;;;;;;;;;;;;;;;;4966437;28;20303;-67
2022/05/22 01:37:20;;;;;;;;;;;;;;;;;;4985284;28;20401;-67
2022/05/22 01:39:45;;;;;;;;;;;;;;;;;;4984247;28;20008;-67
2022/05/22 01:42:11;;;;;;;;;;;;;;;;;;4985496;28;19921;-67
2022/05/22 01:44:36;;;;;;;;;;;;;;;;;;4984735;28;19932;-67
2022/05/22 01:47:04;;;;;;;;;;;;;;;;;;4984765;28;21002;-67
2022/05/22 01:49:32;;;;;;;;;;;;;;;;;;4984589;28;19922;-67
2022/05/22 01:51:57;;;;;;;;;;;;;;;;;;4964736;28;20389;-67
2022/05/22 01:54:23;;;;;;;;;;;;;;;;;;4986552;28;19929;-66
2022/05/22 01:56:48;;;;;;;;;;;;;;;;;;4985887;28;19928;-67
2022/05/22 01:59:14;;;;;;;;;;;;;;;;;;4981449;28;19922;-68
2022/05/22 02:01:39;;;;;;;;;;;;;;;;;;4983065;28;19922;-67
2022/05/22 02:04:04;;;;;;;;;;;;;;;;;;4983105;28;20000;-67
2022/05/22 02:06:32;;;;;;;;;;;;;;;;;;4985410;28;19928;-67
2022/05/22 02:08:58;;;;;;;;;;;;;;;;;;4983561;28;19925;-68
2022/05/22 02:11:23;;;;;;;;;;;;;;;;;;4986411;28;19917;-68
2022/05/22 02:13:49;;;;;;;;;;;;;;;;;;4984201;28;19921;-68
2022/05/22 02:16:14;;;;;;;;;;;;;;;;;;4987142;28;20376;-68
2022/05/22 02:18:40;;;;;;;;;;;;;;;;;;4972920;28;20788;-68
2022/05/22 02:21:05;;;;;;;;;;;;;;;;;;4987806;28;20017;-68
2022/05/22 02:23:31;;;;;;;;;;;;;;;;;;4973269;28;19921;-68
2022/05/22 02:25:56;;;;;;;;;;;;;;;;;;4984296;28;20278;-68
2022/05/22 02:28:21;;;;;;;;;;;;;;;;;;4972323;28;19922;-68
2022/05/22 02:30:47;;;;;;;;;;;;;;;;;;4984771;28;20464;-68
2022/05/22 02:33:12;;;;;;;;;;;;;;;;;;4986905;28;19928;-67
2022/05/22 02:35:37;;;;;;;;;;;;;;;;;;4973564;28;19922;-68
2022/05/22 02:38:03;;;;;;;;;;;;;;;;;;4987292;28;19964;-68
2022/05/22 02:40:28;;;;;;;;;;;;;;;;;;4970284;28;19980;-68
2022/05/22 02:42:53;;;;;;;;;;;;;;;;;;4973484;28;20312;-67
2022/05/22 02:45:19;;;;;;;;;;;;;;;;;;4984113;28;19932;-68
2022/05/22 02:47:46;;;;;;;;;;;;;;;;;;4985779;28;19921;-68
2022/05/22 02:50:12;;;;;;;;;;;;;;;;;;4985118;28;20004;-66
2022/05/22 02:52:37;;;;;;;;;;;;;;;;;;4983689;28;19928;-66
2022/05/22 02:55:02;;;;;;;;;;;;;;;;;;4984877;28;19968;-67
2022/05/22 02:57:27;;;;;;;;;;;;;;;;;;4982495;28;20906;-66
2022/05/22 02:59:53;;;;;;;;;;;;;;;;;;4983727;28;20632;-66
2022/05/22 03:02:19;;;;;;;;;;;;;;;;;;4986441;28;19932;-66
2022/05/22 03:04:44;;;;;;;;;;;;;;;;;;4983896;28;19926;-66
2022/05/22 03:07:09;;;;;;;;;;;;;;;;;;4983887;28;19948;-67
2022/05/22 03:09:37;;;;;;;;;;;;;;;;;;4953349;28;22027;-65
2022/05/22 03:12:02;;;;;;;;;;;;;;;;;;4984615;28;19928;-67
2022/05/22 03:14:28;;;;;;;;;;;;;;;;;;4983856;28;19944;-66
2022/05/22 03:16:53;;;;;;;;;;;;;;;;;;4985353;28;19957;-67
2022/05/22 03:19:18;;;;;;;;;;;;;;;;;;4985492;28;20323;-66
2022/05/22 03:21:44;;;;;;;;;;;;;;;;;;4986780;28;20060;-66
2022/05/22 03:24:09;;;;;;;;;;;;;;;;;;4963094;28;19925;-67
2022/05/22 03:26:35;;;;;;;;;;;;;;;;;;4965889;28;19939;-67
2022/05/22 03:29:03;;;;;;;;;;;;;;;;;;4983188;28;19929;-67
2022/05/22 03:31:28;;;;;;;;;;;;;;;;;;4984903;28;19928;-67
2022/05/22 03:33:54;;;;;;;;;;;;;;;;;;4984968;28;20789;-67
2022/05/22 03:36:19;;;;;;;;;;;;;;;;;;4984412;28;19984;-67
2022/05/22 03:38:47;;;;;;;;;;;;;;;;;;4984610;28;19965;-69
2022/05/22 03:41:13;;;;;;;;;;;;;;;;;;4985154;28;19926;-67
2022/05/22 03:43:38;;;;;;;;;;;;;;;;;;4982635;28;19925;-68
2022/05/22 03:46:04;;;;;;;;;;;;;;;;;;4986300;28;19983;-67
2022/05/22 03:48:29;;;;;;;;;;;;;;;;;;4987765;28;19921;-68
2022/05/22 03:50:54;;;;;;;;;;;;;;;;;;4970878;28;19922;-68
2022/05/22 03:53:22;;;;;;;;;;;;;;;;;;4988904;28;19917;-67
2022/05/22 03:55:48;;;;;;;;;;;;;;;;;;4970514;28;19970;-67
2022/05/22 03:58:13;;;;;;;;;;;;;;;;;;4983260;28;19921;-68
2022/05/22 04:00:39;;;;;;;;;;;;;;;;;;4966373;28;20372;-68
2022/05/22 04:03:05;;;;;;;;;;;;;;;;;;4983768;28;19922;-68
2022/05/22 04:05:30;;;;;;;;;;;;;;;;;;4985132;28;19937;-68
2022/05/22 04:07:55;;;;;;;;;;;;;;;;;;4972575;28;20411;-67
2022/05/22 04:10:21;;;;;;;;;;;;;;;;;;4986729;28;19925;-67
2022/05/22 04:12:46;;;;;;;;;;;;;;;;;;4986236;28;20349;-67
2022/05/22 04:15:14;;;;;;;;;;;;;;;;;;4986708;28;20266;-68
2022/05/22 04:17:40;;;;;;;;;;;;;;;;;;4985994;28;19918;-68
2022/05/22 04:20:05;;;;;;;;;;;;;;;;;;4982458;28;19921;-68
2022/05/22 04:22:32;;;;;;;;;;;;;;;;;;4982489;28;19925;-68
2022/05/22 04:25:13;;;;;;;;;;;;;;;;;;4983428;28;19926;-69
2022/05/22 04:27:38;;;;;;;;;;;;;;;;;;4983478;28;19922;-68
2022/05/22 04:30:03;;;;;;;;;;;;;;;;;;4984395;28;19972;-69
2022/05/22 04:32:29;;;;;;;;;;;;;;;;;;4983098;28;19921;-69
2022/05/22 04:34:56;;;;;;;;;;;;;;;;;;4982877;28;20416;-69
2022/05/22 04:37:22;;;;;;;;;;;;;;;;;;4981667;28;19940;-69
2022/05/22 04:39:47;;;;;;;;;;;;;;;;;;4987494;28;19952;-69
2022/05/22 04:42:13;;;;;;;;;;;;;;;;;;4987447;28;19917;-69
2022/05/22 04:44:38;;;;;;;;;;;;;;;;;;4973415;28;20039;-69
2022/05/22 04:47:03;;;;;;;;;;;;;;;;;;4979431;28;20015;-69
2022/05/22 04:49:29;;;;;;;;;;;;;;;;;;4979036;28;20629;-70
2022/05/22 04:51:54;;;;;;;;;;;;;;;;;;4977282;28;20009;-69
2022/05/22 04:54:19;;;;;;;;;;;;;;;;;;4962352;28;19924;-69
2022/05/22 04:56:45;;;;;;;;;;;;;;;;;;4983587;28;21028;-70
2022/05/22 04:59:13;;;;;;;;;;;;;;;;;;4978222;28;20004;-69
2022/05/22 05:01:39;;;;;;;;;;;;;;;;;;4986788;28;20029;-69
2022/05/22 05:04:04;;;;;;;;;;;;;;;;;;4980433;28;19921;-69
2022/05/22 05:06:35;;;;;;;;;;;;;;;;;;4985087;28;19917;-71
2022/05/22 05:09:01;;;;;;;;;;;;;;;;;;4985047;28;19924;-71
2022/05/22 05:11:26;;;;;;;;;;;;;;;;;;4982597;28;20501;-71
2022/05/22 05:13:52;;;;;;;;;;;;;;;;;;4986193;28;19922;-71
2022/05/22 05:16:18;;;;;;;;;;;;;;;;;;4987544;28;19996;-71
2022/05/22 05:18:44;;;;;;;;;;;;;;;;;;4987427;28;19924;-71
2022/05/22 05:21:12;;;;;;;;;;;;;;;;;;4988676;28;19921;-71
2022/05/22 05:23:40;;;;;;;;;;;;;;;;;;4984928;28;19922;-70
2022/05/22 05:26:05;;;;;;;;;;;;;;;;;;4982283;28;19925;-70
2022/05/22 05:28:31;;;;;;;;;;;;;;;;;;4982517;28;19928;-72
2022/05/22 05:30:58;;;;;;;;;;;;;;;;;;4984028;28;19921;-71
2022/05/22 05:33:24;;;;;;;;;;;;;;;;;;4982983;28;20301;-72
2022/05/22 05:35:49;;;;;;;;;;;;;;;;;;4959839;28;19930;-71
2022/05/22 05:38:14;;;;;;;;;;;;;;;;;;4983989;28;19924;-72
2022/05/22 05:40:40;;;;;;;;;;;;;;;;;;4971675;28;19929;-71
2022/05/22 05:43:05;;;;;;;;;;;;;;;;;;4985310;28;19922;-71
2022/05/22 05:45:31;;;;;;;;;;;;;;;;;;4983598;28;20605;-71
2022/05/22 05:47:57;;;;;;;;;;;;;;;;;;4982015;28;20808;-71
2022/05/22 05:50:22;;;;;;;;;;;;;;;;;;4980767;28;21844;-72
2022/05/22 05:52:47;;;;;;;;;;;;;;;;;;4977773;28;19924;-72
2022/05/22 05:55:14;;;;;;;;;;;;;;;;;;4980333;28;20008;-73
2022/05/22 05:57:42;;;;;;;;;;;;;;;;;;4983902;28;20977;-72
2022/05/22 06:00:07;;;;;;;;;;;;;;;;;;4972660;28;19940;-71
2022/05/22 06:02:32;;;;;;;;;;;;;;;;;;4988919;28;20047;-72
2022/05/22 06:04:58;;;;;;;;;;;;;;;;;;4991013;28;19921;-71
2022/05/22 06:07:23;;;;;;;;;;;;;;;;;;4989719;28;19922;-71
2022/05/22 06:09:49;;;;;;;;;;;;;;;;;;4989625;28;20456;-72
2022/05/22 06:12:14;;;;;;;;;;;;;;;;;;4990618;28;19921;-72
2022/05/22 06:14:39;;;;;;;;;;;;;;;;;;4969436;28;19968;-72
2022/05/22 06:17:05;;;;;;;;;;;;;;;;;;4986690;28;22118;-71
2022/05/22 06:22:15;;;;;;;;;;;;;;;;;;4986975;28;19977;-71
2022/05/22 06:24:40;;;;;;;;;;;;;;;;;;4980889;28;19921;-72
2022/05/22 06:27:06;;;;;;;;;;;;;;;;;;4981625;28;19929;-71
2022/05/22 06:29:33;;;;;;;;;;;;;;;;;;4985876;28;19963;-71
2022/05/22 06:31:59;;;;;;;;;;;;;;;;;;4979839;28;19918;-72
2022/05/22 06:34:24;;;;;;;;;;;;;;;;;;4984147;28;19964;-71
2022/05/22 06:36:50;;;;;;;;;;;;;;;;;;4985135;28;20028;-71
2022/05/22 06:42:00;;;;;;;;;;;;;;;;;;4986013;28;19918;-71
2022/05/22 06:44:25;;;;;;;;;;;;;;;;;;4984215;28;19925;-71
2022/05/22 06:46:51;;;;;;;;;;;;;;;;;;4962784;28;19959;-71
2022/05/22 06:49:16;;;;;;;;;;;;;;;;;;4983307;28;20008;-71
2022/05/22 06:51:41;;;;;;;;;;;;;;;;;;4985343;28;19917;-71
2022/05/22 06:54:09;;;;;;;;;;;;;;;;;;4963188;28;20352;-69
2022/05/22 06:56:34;;;;;;;;;;;;;;;;;;4986984;28;19953;-70
2022/05/22 06:59:00;;;;;;;;;;;;;;;;;;4983824;28;19922;-70
2022/05/22 07:01:26;;;;;;;;;;;;;;;;;;4983530;28;20377;-69
2022/05/22 07:03:52;;;;;;;;;;;;;;;;;;4985009;28;20585;-69
2022/05/22 07:06:17;;;;;;;;;;;;;;;;;;4989622;28;19925;-69
2022/05/22 07:08:42;;;;;;;;;;;;;;;;;;4972535;28;19921;-66
2022/05/22 07:13:52;;;;;;;;;;;;;;;;;;4970468;28;19952;-69
2022/05/22 07:16:17;;;;;;;;;;;;;;;;;;4988548;28;20004;-69
2022/05/22 07:18:44;;;;;;;;;;;;;;;;;;4989266;28;19926;-69
2022/05/22 07:21:09;;;;;;;;;;;;;;;;;;4987929;28;19924;-68
2022/05/22 07:23:34;;;;;;;;;;;;;;;;;;4974618;28;19922;-69
2022/05/22 07:25:59;;;;;;;;;;;;;;;;;;4968155;28;20008;-69
2022/05/22 07:28:25;;;;;;;;;;;;;;;;;;4988335;28;19980;-68
2022/05/22 07:30:50;;;;;;;;;;;;;;;;;;4989762;28;20008;-69
2022/05/22 07:33:16;;;;;;;;;;;;;;;;;;4987609;28;19917;-69
2022/05/22 07:35:42;;;;;;;;;;;;;;;;;;4989344;28;20348;-69
2022/05/22 07:38:07;;;;;;;;;;;;;;;;;;4958039;28;19921;-68
2022/05/22 07:43:48;;;;;;;;;;;;;;;;;;4989033;28;19928;-68
2022/05/22 07:46:14;;;;;;;;;;;;;;;;;;4972664;28;19922;-68
2022/05/22 07:48:40;;;;;;;;;;;;;;;;;;4988526;28;19917;-67
2022/05/22 07:51:05;;;;;;;;;;;;;;;;;;4989075;28;19944;-68
2022/05/22 07:53:31;;;;;;;;;;;;;;;;;;4986847;28;20345;-69
2022/05/22 07:55:56;;;;;;;;;;;;;;;;;;4957586;28;22176;-68
2022/05/22 07:58:21;;;;;;;;;;;;;;;;;;4987549;28;19933;-68
2022/05/22 08:00:47;;;;;;;;;;;;;;;;;;4989520;28;19921;-68
2022/05/22 08:03:12;;;;;;;;;;;;;;;;;;4989215;28;20443;-67
2022/05/22 08:05:41;;;;;;;;;;;;;;;;;;4970219;28;19953;-67
2022/05/22 08:08:08;;;;;;;;;;;;;;;;;;4988872;28;20040;-68
2022/05/22 08:10:36;;;;;;;;;;;;;;;;;;4988722;28;19956;-67
2022/05/22 08:13:01;;;;;;;;;;;;;;;;;;4988573;28;19917;-67
2022/05/22 08:15:30;;;;;;;;;;;;;;;;;;4973599;28;21522;-66
2022/05/22 08:17:55;;;;;;;;;;;;;;;;;;4976152;28;19925;-66
2022/05/22 08:20:20;;;;;;;;;;;;;;;;;;4966193;28;19939;-67
2022/05/22 08:22:46;;;;;;;;;;;;;;;;;;4986366;28;20460;-68
2022/05/22 08:25:11;;;;;;;;;;;;;;;;;;4987719;28;19917;-67
2022/05/22 08:27:36;;;;;;;;;;;;;;;;;;4957372;28;20416;-66
2022/05/22 08:30:02;;;;;;;;;;;;;;;;;;4987537;28;19928;-67
2022/05/22 08:32:27;;;;;;;;;;;;;;;;;;4977831;28;19922;-67
2022/05/22 08:34:53;;;;;;;;;;;;;;;;;;4988085;28;19921;-66
2022/05/22 08:37:18;;;;;;;;;;;;;;;;;;4972763;28;20392;-67
2022/05/22 08:39:44;;;;;;;;;;;;;;;;;;4987321;28;19957;-67
2022/05/22 08:42:09;;;;;;;;;;;;;;;;;;4987418;28;19925;-68
2022/05/22 08:44:35;;;;;;;;;;;;;;;;;;4987216;28;19928;-68
2022/05/22 08:47:03;;;;;;;;;;;;;;;;;;4988297;28;19932;-67
2022/05/22 08:49:29;;;;;;;;;;;;;;;;;;4985251;28;19936;-69
2022/05/22 08:51:54;;;;;;;;;;;;;;;;;;4970638;28;20349;-65
2022/05/22 08:54:19;;;;;;;;;;;;;;;;;;4984781;28;20476;-65
2022/05/22 08:59:29;;;;;;;;;;;;;;;;;;4971591;28;19949;-67
2022/05/22 09:01:54;;;;;;;;;;;;;;;;;;4986960;28;19917;-67
2022/05/22 09:04:20;;;;;;;;;;;;;;;;;;4987460;28;20480;-67
2022/05/22 09:06:45;;;;;;;;;;;;;;;;;;4986954;28;19924;-67
2022/05/22 09:09:10;;;;;;;;;;;;;;;;;;4986894;28;19921;-66
2022/05/22 09:11:36;;;;;;;;;;;;;;;;;;4977226;28;20365;-67
2022/05/22 09:14:01;;;;;;;;;;;;;;;;;;4986735;28;19925;-67
2022/05/22 09:16:26;;;;;;;;;;;;;;;;;;4988461;28;20388;-66
2022/05/22 09:18:55;;;;;;;;;;;;;;;;;;4973688;28;19944;-65
2022/05/22 09:21:20;;;;;;;;;;;;;;;;;;4968939;28;20001;-66
2022/05/22 09:27:02;;;;;;;;;;;;;;;;;;4988181;28;19927;-66
2022/05/22 09:29:27;;;;;;;;;;;;;;;;;;4988508;28;19921;-66
2022/05/22 09:31:52;;;;;;;;;;;;;;;;;;4986598;28;20011;-66
2022/05/22 09:34:18;;;;;;;;;;;;;;;;;;4988090;28;19933;-67
2022/05/22 09:36:43;;;;;;;;;;;;;;;;;;4986673;28;20527;-66
2022/05/22 09:39:08;;;;;;;;;;;;;;;;;;4992091;28;20658;-66
2022/05/22 09:41:36;;;;;;;;;;;;;;;;;;4990584;28;20097;-66
2022/05/22 09:44:02;;;;;;;;;;;;;;;;;;4991368;28;20033;-67
2022/05/22 09:46:27;;;;;;;;;;;;;;;;;;4976686;28;19929;-67
2022/05/22 09:48:54;;;;;;;;;;;;;;;;;;4989979;28;19922;-65
2022/05/22 09:51:20;;;;;;;;;;;;;;;;;;4991917;28;19917;-65
2022/05/22 09:53:46;;;;;;;;;;;;;;;;;;4990974;28;21537;-66
2022/05/22 09:56:11;;;;;;;;;;;;;;;;;;4988426;28;19960;-66
2022/05/22 09:58:36;;;;;;;;;;;;;;;;;;4969514;28;19984;-66
2022/05/22 10:01:01;;;;;;;;;;;;;;;;;;4990968;28;20003;-66
2022/05/22 10:03:27;;;;;;;;;;;;;;;;;;4991287;28;19921;-67
2022/05/22 10:05:52;;;;;;;;;;;;;;;;;;4991474;28;19922;-63
2022/05/22 10:08:18;;;;;;;;;;;;;;;;;;4986605;28;19928;-67
2022/05/22 10:10:44;;;;;;;;;;;;;;;;;;4991868;28;20452;-67
2022/05/22 10:13:09;;;;;;;;;;;;;;;;;;4991502;28;19967;-66
2022/05/22 10:15:35;;;;;;;;;;;;;;;;;;4989817;28;19957;-66
2022/05/22 10:18:00;;;;;;;;;;;;;;;;;;4989425;28;19918;-67
2022/05/22 10:20:26;;;;;;;;;;;;;;;;;;4988586;28;20978;-66
2022/05/22 10:22:53;;;;;;;;;;;;;;;;;;4982805;28;19928;-66
2022/05/22 10:25:19;;;;;;;;;;;;;;;;;;4984430;28;19917;-66
2022/05/22 10:27:44;;;;;;;;;;;;;;;;;;4982968;28;20876;-66
2022/05/22 10:30:10;;;;;;;;;;;;;;;;;;4985508;28;19922;-66
2022/05/22 10:32:35;;;;;;;;;;;;;;;;;;4982626;28;19926;-65
2022/05/22 10:35:03;;;;;;;;;;;;;;;;;;4987233;28;20462;-66
2022/05/22 10:37:28;;;;;;;;;;;;;;;;;;4988773;28;20039;-65
2022/05/22 10:39:54;;;;;;;;;;;;;;;;;;4987854;28;19924;-65
2022/05/22 10:45:03;;;;;;;;;;;;;;;;;;4988325;28;20293;-65
2022/05/22 10:47:29;;;;;;;;;;;;;;;;;;4990779;28;19921;-65
2022/05/22 10:49:54;;;;;;;;;;;;;;;;;;4976789;28;19917;-65
2022/05/22 10:52:20;;;;;;;;;;;;;;;;;;4989647;28;19922;-65
2022/05/22 10:54:47;;;;;;;;;;;;;;;;;;4990264;28;21775;-65
2022/05/22 10:57:12;;;;;;;;;;;;;;;;;;4961871;28;19931;-64
2022/05/22 10:59:40;;;;;;;;;;;;;;;;;;4982933;28;20888;-65
2022/05/22 11:02:08;;;;;;;;;;;;;;;;;;4976614;28;19926;-65
2022/05/22 11:04:33;;;;;;;;;;;;;;;;;;4988038;28;20426;-65
2022/05/22 11:06:58;;;;;;;;;;;;;;;;;;4988824;28;20505;-65
2022/05/22 11:09:24;;;;;;;;;;;;;;;;;;4982394;28;19969;-64
2022/05/22 11:11:51;;;;;;;;;;;;;;;;;;4983861;28;19935;-65
2022/05/22 11:14:17;;;;;;;;;;;;;;;;;;4967309;28;19928;-64
2022/05/22 11:16:45;;;;;;;;;;;;;;;;;;4973454;28;19921;-64
2022/05/22 11:19:10;;;;;;;;;;;;;;;;;;4963275;28;19932;-65
2022/05/22 11:21:35;;;;;;;;;;;;;;;;;;4986344;28;19917;-66
2022/05/22 11:24:02;;;;;;;;;;;;;;;;;;4983864;28;19917;-66
2022/05/22 11:26:29;;;;;;;;;;;;;;;;;;4972967;28;19928;-66
2022/05/22 11:28:56;;;;;;;;;;;;;;;;;;4969406;28;19933;-65
2022/05/22 11:31:22;;;;;;;;;;;;;;;;;;4984611;28;19921;-65
2022/05/22 11:33:48;;;;;;;;;;;;;;;;;;4984263;28;20004;-65
2022/05/22 11:36:16;;;;;;;;;;;;;;;;;;4981826;28;19929;-65
2022/05/22 11:38:44;;;;;;;;;;;;;;;;;;4984322;28;20040;-64
2022/05/22 11:41:13;;;;;;;;;;;;;;;;;;4955368;28;19980;-65
2022/05/22 11:43:38;;;;;;;;;;;;;;;;;;4971955;28;20320;-64
2022/05/22 11:46:03;;;;;;;;;;;;;;;;;;4984948;28;19975;-64
2022/05/22 11:48:29;;;;;;;;;;;;;;;;;;4979778;28;19922;-65
2022/05/22 11:50:54;;;;;;;;;;;;;;;;;;4980898;28;20052;-64
2022/05/22 11:53:19;;;;;;;;;;;;;;;;;;4984654;28;20373;-65
2022/05/22 11:55:59;;;;;;;;;;;;;;;;;;5040218;27;19928;-65
2022/05/22 11:58:26;;;;;;;;;;;;;;;;;;5033369;28;19932;-65
2022/05/22 12:00:51;;;;;;;;;;;;;;;;;;5041131;28;19921;-66
2022/05/22 12:03:17;;;;;;;;;;;;;;;;;;5039637;28;20022;-65
2022/05/22 12:05:42;;;;;;;;;;;;;;;;;;5027746;28;19923;-67
2022/05/22 12:08:08;;;;;;;;;;;;;;;;;;5025223;28;19924;-64
2022/05/22 12:10:33;;;;;;;;;;;;;;;;;;5044404;28;20303;-68
2022/05/22 12:12:59;;;;;;;;;;;;;;;;;;5040485;28;20047;-66
2022/05/22 12:15:26;;;;;;;;;;;;;;;;;;5040710;28;19963;-65
2022/05/22 12:17:53;;;;;;;;;;;;;;;;;;5043265;28;19974;-65
2022/05/22 12:20:20;;;;;;;;;;;;;;;;;;5039256;28;19944;-65
2022/05/22 12:25:30;;;;;;;;;;;;;;;;;;5043815;28;19925;-65
2022/05/22 12:27:55;;;;;;;;;;;;;;;;;;5037163;28;19912;-66
2022/05/22 12:30:22;;;;;;;;;;;;;;;;;;5037814;28;20984;-65
2022/05/22 12:32:47;;;;;;;;;;;;;;;;;;5044825;28;19956;-65
2022/05/22 12:35:14;;;;;;;;;;;;;;;;;;5037312;28;19932;-65
2022/05/22 12:37:42;;;;;;;;;;;;;;;;;;5041429;28;20717;-65
2022/05/22 12:40:07;;;;;;;;;;;;;;;;;;5041696;28;19923;-66
2022/05/22 12:42:33;;;;;;;;;;;;;;;;;;5048217;28;19924;-64
2022/05/22 12:45:01;;;;;;;;;;;;;;;;;;5042177;28;20311;-65
2022/05/22 12:47:30;;;;;;;;;;;;;;;;;;5042594;28;20763;-66
2022/05/22 12:49:58;;;;;;;;;;;;;;;;;;5026965;28;19921;-66
2022/05/22 12:52:24;;;;;;;;;;;;;;;;;;5038766;28;20029;-64
2022/05/22 12:54:49;;;;;;;;;;;;;;;;;;5039647;28;20463;-63
2022/05/22 12:57:15;;;;;;;;;;;;;;;;;;5037097;28;21635;-65
2022/05/22 12:59:40;;;;;;;;;;;;;;;;;;5036518;28;20804;-65
2022/05/22 13:02:05;;;;;;;;;;;;;;;;;;5041088;28;19923;-64
2022/05/22 13:04:31;;;;;;;;;;;;;;;;;;5038127;28;19969;-64
2022/05/22 13:06:56;;;;;;;;;;;;;;;;;;5025802;28;19962;-65
2022/05/22 13:09:21;;;;;;;;;;;;;;;;;;5027880;28;19963;-65
2022/05/22 13:11:47;;;;;;;;;;;;;;;;;;5027568;28;19917;-66
2022/05/22 13:14:12;;;;;;;;;;;;;;;;;;5040328;28;19929;-64
2022/05/22 13:16:38;;;;;;;;;;;;;;;;;;5024084;28;19932;-66
2022/05/22 13:19:03;;;;;;;;;;;;;;;;;;5024134;28;20422;-65
2022/05/22 13:21:29;;;;;;;;;;;;;;;;;;5025027;28;20715;-65
2022/05/22 13:23:54;;;;;;;;;;;;;;;;;;5024770;28;19916;-65
2022/05/22 13:26:20;;;;;;;;;;;;;;;;;;5025185;28;20321;-65
2022/05/22 13:28:45;;;;;;;;;;;;;;;;;;5024212;28;19917;-65
2022/05/22 13:31:12;;;;;;;;;;;;;;;;;;5026429;28;19963;-63
2022/05/22 13:33:37;;;;;;;;;;;;;;;;;;5027091;28;20408;-66
2022/05/22 13:36:02;;;;;;;;;;;;;;;;;;5024882;28;19923;-66
2022/05/22 13:38:28;;;;;;;;;;;;;;;;;;5025089;28;19928;-65
2022/05/22 13:40:53;;;;;;;;;;;;;;;;;;5008912;28;20578;-65
2022/05/22 13:43:19;;;;;;;;;;;;;;;;;;5025479;28;19924;-64
2022/05/22 13:45:44;;;;;;;;;;;;;;;;;;5026733;28;19921;-64
2022/05/22 13:48:10;;;;;;;;;;;;;;;;;;5023454;28;19928;-64
2022/05/22 13:53:19;;;;;;;;;;;;;;;;;;5023561;28;19917;-65
2022/05/22 13:55:46;;;;;;;;;;;;;;;;;;5026459;28;19925;-63
2022/05/22 13:58:11;;;;;;;;;;;;;;;;;;5024715;28;19920;-65
2022/05/22 14:00:37;;;;;;;;;;;;;;;;;;5023232;28;20932;-64
2022/05/22 14:06:21;;;;;;;;;;;;;;;;;;5027669;28;19944;-64
2022/05/22 14:08:47;;;;;;;;;;;;;;;;;;5024335;28;19956;-64
2022/05/22 14:11:13;;;;;;;;;;;;;;;;;;5022294;28;19967;-64
2022/05/22 14:13:47;;;;;;;;;;;;;;;;;;5023883;28;21819;-64
2022/05/22 14:16:12;;;;;;;;;;;;;;;;;;5027661;28;19924;-62
2022/05/22 14:18:38;;;;;;;;;;;;;;;;;;5026085;28;19925;-63
2022/05/22 14:21:05;;;;;;;;;;;;;;;;;;5012231;28;19920;-63
2022/05/22 14:24:51;;;;;;;;;;;;;;;;;;5027835;28;19921;-62
2022/05/22 14:26:21;;;;;;;;;;;;;;;;;;5019946;28;19921;-62
2022/05/22 14:28:46;;;;;;;;;;;;;;;;;;5024899;28;19956;-62
2022/05/22 14:31:14;;;;;;;;;;;;;;;;;;5025230;28;19921;-63
2022/05/22 14:33:40;;;;;;;;;;;;;;;;;;5022058;28;19935;-63
2022/05/22 14:36:07;;;;;;;;;;;;;;;;;;5027004;28;19916;-63
2022/05/22 14:38:35;;;;;;;;;;;;;;;;;;5023060;28;19979;-63
2022/05/22 14:41:03;;;;;;;;;;;;;;;;;;5039521;28;19921;-62
2022/05/22 14:43:28;;;;;;;;;;;;;;;;;;5021530;28;19920;-61
2022/05/22 14:45:53;;;;;;;;;;;;;;;;;;5025866;28;19917;-62
2022/05/22 14:48:21;;;;;;;;;;;;;;;;;;5026026;28;19971;-63
2022/05/22 14:50:49;;;;;;;;;;;;;;;;;;5022766;28;19921;-62
2022/05/22 14:53:14;;;;;;;;;;;;;;;;;;5023519;28;19923;-62
2022/05/22 14:55:40;;;;;;;;;;;;;;;;;;5009332;28;19929;-62
2022/05/22 14:58:06;;;;;;;;;;;;;;;;;;5023364;28;20421;-62
2022/05/22 15:00:31;;;;;;;;;;;;;;;;;;5026653;28;19979;-63
2022/05/22 15:02:59;;;;;;;;;;;;;;;;;;5007393;28;20557;-62
2022/05/22 15:05:25;;;;;;;;;;;;;;;;;;5013696;28;19917;-62
2022/05/22 15:07:53;;;;;;;;;;;;;;;;;;5032473;28;20540;-62
2022/05/22 15:10:18;;;;;;;;;;;;;;;;;;5032712;28;19917;-62
2022/05/22 15:12:45;;;;;;;;;;;;;;;;;;5034047;28;19927;-62
2022/05/22 15:15:13;;;;;;;;;;;;;;;;;;5014951;28;20639;-63
2022/05/22 15:17:38;;;;;;;;;;;;;;;;;;5016766;28;19925;-63
2022/05/22 15:20:06;;;;;;;;;;;;;;;;;;5030987;28;19940;-62
2022/05/22 15:25:30;;;;;;;;;;;;;;;;;;5030426;28;19921;-63
2022/05/22 15:27:58;;;;;;;;;;;;;;;;;;5045125;28;19924;-66
2022/05/22 15:30:23;;;;;;;;;;;;;;;;;;5033099;28;20924;-62
2022/05/22 15:32:54;;;;;;;;;;;;;;;;;;5033595;28;20968;-62
2022/05/22 15:35:19;;;;;;;;;;;;;;;;;;5028736;28;19967;-62
2022/05/22 15:37:45;;;;;;;;;;;;;;;;;;5033062;28;19924;-65
2022/05/22 15:40:13;;;;;;;;;;;;;;;;;;5033374;28;19916;-62
2022/05/22 15:42:39;;;;;;;;;;;;;;;;;;5032253;28;19925;-62
2022/05/22 15:45:05;;;;;;;;;;;;;;;;;;5028099;28;19932;-62
2022/05/22 15:47:30;;;;;;;;;;;;;;;;;;5031093;28;19931;-60
2022/05/22 15:52:42;;;;;;;;;;;;;;;;;;5029985;28;19927;-62
2022/05/22 15:55:08;;;;;;;;;;;;;;;;;;5031992;28;19924;-62
2022/05/22 15:57:33;;;;;;;;;;;;;;;;;;5031242;28;19921;-62
2022/05/22 16:00:01;;;;;;;;;;;;;;;;;;5030931;28;20015;-62
2022/05/22 16:02:26;;;;;;;;;;;;;;;;;;5028115;28;19928;-63
2022/05/22 16:04:52;;;;;;;;;;;;;;;;;;5030474;28;19924;-64
2022/05/22 16:07:20;;;;;;;;;;;;;;;;;;5030039;28;19920;-63
2022/05/22 16:09:45;;;;;;;;;;;;;;;;;;5028350;28;20568;-64
2022/05/22 16:12:11;;;;;;;;;;;;;;;;;;5032656;28;20836;-64
2022/05/22 16:14:38;;;;;;;;;;;;;;;;;;5031888;28;19917;-63
2022/05/22 16:17:03;;;;;;;;;;;;;;;;;;5016866;28;21153;-64
2022/05/22 16:19:29;;;;;;;;;;;;;;;;;;5031221;28;19923;-63
2022/05/22 16:21:54;;;;;;;;;;;;;;;;;;5031374;28;19920;-63
2022/05/22 16:24:23;;;;;;;;;;;;;;;;;;5031247;28;19921;-63
2022/05/22 16:26:48;;;;;;;;;;;;;;;;;;5032536;28;19948;-62
2022/05/22 16:29:13;;;;;;;;;;;;;;;;;;5028731;28;20011;-64
2022/05/22 16:31:39;;;;;;;;;;;;;;;;;;5017366;28;19948;-67
2022/05/22 16:34:07;;;;;;;;;;;;;;;;;;5030557;28;19979;-62
2022/05/22 16:36:33;;;;;;;;;;;;;;;;;;5032543;28;20384;-63
2022/05/22 16:38:58;;;;;;;;;;;;;;;;;;5030012;28;20603;-63
2022/05/22 16:41:24;;;;;;;;;;;;;;;;;;5031844;28;19962;-65
2022/05/22 16:43:51;;;;;;;;;;;;;;;;;;5033153;28;20021;-62
2022/05/22 16:46:17;;;;;;;;;;;;;;;;;;5034368;28;19920;-63
2022/05/22 16:54:17;;;;;;;;;;;;;;;;;;5033522;28;21169;-62
2022/05/22 16:56:42;;;;;;;;;;;;;;;;;;5033400;28;19931;-61
2022/05/22 16:59:10;;;;;;;;;;;;;;;;;;5031775;28;19924;-63
2022/05/22 17:01:38;;;;;;;;;;;;;;;;;;5033981;28;20608;-63
2022/05/22 17:04:03;;;;;;;;;;;;;;;;;;5031457;28;20011;-63
2022/05/22 17:06:31;;;;;;;;;;;;;;;;;;5031646;28;19920;-63
2022/05/22 17:08:58;;;;;;;;;;;;;;;;;;5034566;28;19994;-61
2022/05/22 17:11:28;;;;;;;;;;;;;;;;;;5031631;28;19917;-62
2022/05/22 17:13:53;;;;;;;;;;;;;;;;;;5017739;28;19920;-61
2022/05/22 17:16:19;;;;;;;;;;;;;;;;;;5033157;28;19917;-62
2022/05/22 17:18:46;;;;;;;;;;;;;;;;;;5033963;28;20002;-65
2022/05/22 17:21:16;;;;;;;;;;;;;;;;;;5033257;28;19917;-65